createdAt,value
2022-08-09T00:01:10.601Z,59.95
2022-08-09T00:04:00.217Z,59.58
2022-08-09T00:06:27.787Z,59.60
2022-08-09T00:08:57.549Z,58.91
2022-08-09T00:11:27.588Z,58.51
2022-08-09T00:13:55.603Z,58.02
2022-08-09T00:16:26.546Z,58.18
2022-08-09T00:19:09.360Z,58.50
2022-08-09T00:21:55.692Z,58.36
2022-08-09T00:24:24.420Z,58.58
2022-08-09T00:26:51.238Z,56.78
2022-08-09T00:29:39.613Z,57.37
2022-08-09T00:32:06.110Z,58.01
2022-08-09T00:34:33.582Z,57.49
2022-08-09T00:37:00.402Z,57.74
2022-08-09T00:40:14.006Z,57.98
2022-08-09T00:44:10.960Z,57.66
2022-08-09T00:45:03.559Z,57.89
2022-08-09T00:47:42.037Z,57.36
2022-08-09T00:50:14.807Z,58.03
2022-08-09T00:52:42.290Z,58.31
2022-08-09T00:55:10.361Z,58.48
2022-08-09T00:57:59.272Z,58.50
2022-08-09T01:00:27.141Z,58.57
2022-08-09T01:02:57.854Z,57.30
2022-08-09T01:06:17.843Z,58.14
2022-08-09T01:09:36.503Z,58.77
2022-08-09T01:12:12.865Z,59.46
2022-08-09T01:14:52.946Z,60.08
2022-08-09T01:17:25.952Z,60.19
2022-08-09T01:20:14.959Z,60.42
2022-08-09T01:22:51.201Z,61.32
2022-08-09T01:25:42.226Z,60.92
2022-08-09T01:28:16.824Z,61.51
2022-08-09T01:30:51.771Z,61.53
2022-08-09T01:33:25.416Z,62.04
2022-08-09T01:36:13.713Z,61.30
2022-08-09T01:38:46.615Z,61.58
2022-08-09T01:41:16.124Z,60.05
2022-08-09T01:43:51.493Z,62.22
2022-08-09T01:46:41.586Z,63.25
2022-08-09T01:49:17.676Z,62.71
2022-08-09T01:52:07.521Z,63.12
2022-08-09T01:55:02.119Z,62.71
2022-08-09T01:57:40.220Z,63.49
2022-08-09T02:00:19.436Z,62.13
2022-08-09T02:03:02.982Z,62.97
2022-08-09T02:05:38.069Z,62.03
2022-08-09T02:08:38.672Z,62.38
2022-08-09T02:11:17.221Z,63.46
2022-08-09T02:14:06.476Z,64.18
2022-08-09T02:16:59.667Z,63.80
2022-08-09T02:19:22.869Z,64.21
2022-08-09T02:21:55.915Z,63.99
2022-08-09T02:24:35.281Z,63.90
2022-08-09T02:27:05.983Z,63.24
2022-08-09T02:29:39.148Z,62.53
2022-08-09T02:32:10.379Z,61.79
2022-08-09T02:34:41.753Z,61.65
2022-08-09T02:37:24.213Z,61.65
2022-08-09T02:40:12.260Z,60.90
2022-08-09T02:42:42.172Z,62.23
2022-08-09T02:45:13.685Z,61.92
2022-08-09T02:47:57.351Z,61.88
2022-08-09T02:50:51.898Z,62.08
2022-08-09T02:53:26.894Z,62.67
2022-08-09T02:55:57.955Z,62.81
2022-08-09T02:58:36.153Z,63.04
2022-08-09T03:01:07.948Z,63.05
2022-08-09T03:04:16.924Z,63.58
2022-08-09T03:06:27.408Z,63.58
2022-08-09T03:08:55.866Z,64.47
2022-08-09T03:11:29.572Z,65.07
2022-08-09T03:14:12.281Z,65.50
2022-08-09T03:16:45.167Z,65.66
2022-08-09T03:19:52.470Z,65.55
2022-08-09T03:22:12.096Z,66.08
2022-08-09T03:25:06.694Z,66.22
2022-08-09T03:27:44.997Z,66.71
2022-08-09T03:30:13.875Z,67.22
2022-08-09T03:32:41.727Z,66.07
2022-08-09T03:35:24.156Z,66.65
2022-08-09T03:37:59.949Z,66.75
2022-08-09T03:40:31.145Z,67.98
2022-08-09T03:42:58.037Z,68.72
2022-08-09T03:46:04.475Z,68.73
2022-08-09T03:48:11.377Z,68.58
2022-08-09T03:50:45.891Z,69.99
2022-08-09T03:53:16.906Z,70.95
2022-08-09T03:55:48.139Z,70.28
2022-08-09T03:58:16.674Z,70.19
2022-08-09T04:00:45.535Z,70.81
2022-08-09T04:03:24.700Z,71.03
2022-08-09T04:05:59.744Z,72.21
2022-08-09T04:08:31.239Z,72.79
2022-08-09T04:11:01.421Z,72.83
2022-08-09T04:14:37.280Z,71.84
2022-08-09T04:16:20.292Z,72.28
2022-08-09T04:18:50.933Z,72.18
2022-08-09T04:21:18.994Z,72.33
2022-08-09T04:23:53.976Z,72.24
2022-08-09T04:26:23.301Z,69.89
2022-08-09T04:28:50.554Z,67.36
2022-08-09T04:31:17.306Z,66.67
2022-08-09T04:33:51.847Z,66.36
2022-08-09T04:36:24.963Z,66.05
2022-08-09T04:38:53.715Z,65.73
2022-08-09T04:41:23.722Z,64.79
2022-08-09T04:44:05.066Z,63.70
2022-08-09T04:46:37.675Z,62.94
2022-08-09T04:49:30.259Z,63.20
2022-08-09T04:52:09.769Z,62.84
2022-08-09T04:54:36.925Z,62.15
2022-08-09T04:57:04.109Z,61.89
2022-08-09T04:59:31.757Z,61.51
2022-08-09T05:01:58.595Z,60.75
2022-08-09T05:04:31.115Z,60.38
2022-08-09T05:06:58.092Z,59.92
2022-08-09T05:09:24.957Z,59.61
2022-08-09T05:12:09.591Z,59.51
2022-08-09T05:14:37.902Z,58.68
2022-08-09T05:17:15.200Z,58.71
2022-08-09T05:19:56.828Z,58.28
2022-08-09T05:22:33.601Z,58.33
2022-08-09T05:25:10.931Z,57.59
2022-08-09T05:27:45.457Z,55.92
2022-08-09T05:30:15.342Z,55.98
2022-08-09T05:32:45.591Z,54.43
2022-08-09T05:35:18.293Z,54.45
2022-08-09T05:37:50.337Z,53.14
2022-08-09T05:40:18.303Z,53.99
2022-08-09T05:42:45.530Z,52.96
2022-08-09T05:45:14.576Z,52.12
2022-08-09T05:47:45.609Z,50.70
2022-08-09T05:50:35.108Z,48.58
2022-08-09T05:53:06.063Z,48.46
2022-08-09T05:55:38.589Z,49.29
2022-08-09T05:58:07.238Z,48.44
2022-08-09T06:00:34.136Z,50.23
2022-08-09T06:03:03.436Z,50.37
2022-08-09T06:05:57.565Z,49.17
2022-08-09T06:10:56.991Z,48.45
2022-08-09T06:13:25.717Z,48.91
2022-08-09T06:15:55.290Z,47.22
2022-08-09T06:18:25.159Z,48.10
2022-08-09T06:20:57.778Z,46.12
2022-08-09T06:23:57.135Z,45.44
2022-08-09T06:26:22.708Z,45.18
2022-08-09T06:29:00.148Z,44.91
2022-08-09T06:31:31.457Z,46.78
2022-08-09T06:34:07.235Z,44.50
2022-08-09T06:36:34.139Z,42.94
2022-08-09T06:39:02.628Z,43.79
2022-08-09T06:42:01.234Z,44.93
2022-08-09T06:44:24.650Z,44.77
2022-08-09T06:46:55.484Z,43.26
2022-08-09T06:49:44.953Z,43.22
2022-08-09T06:52:10.643Z,43.86
2022-08-09T06:54:38.812Z,43.80
2022-08-09T06:57:08.359Z,43.22
2022-08-09T07:00:55.691Z,42.35
2022-08-09T07:02:21.822Z,43.61
2022-08-09T07:04:56.040Z,42.00
2022-08-09T07:07:59.902Z,39.51
2022-08-09T07:10:22.581Z,36.74
2022-08-09T07:12:57.154Z,36.30
2022-08-09T07:16:34.955Z,34.53
2022-08-09T07:18:11.216Z,33.29
2022-08-09T07:20:43.363Z,32.28
2022-08-09T07:23:18.157Z,31.93
2022-08-09T07:25:46.514Z,31.21
2022-08-09T07:28:19.175Z,31.86
2022-08-09T07:30:54.011Z,30.86
2022-08-09T07:33:22.102Z,30.29
2022-08-09T07:35:54.424Z,30.60
2022-08-09T07:38:21.522Z,31.69
2022-08-09T07:41:10.066Z,29.99
2022-08-09T07:43:40.975Z,29.82
2022-08-09T07:46:08.427Z,28.77
2022-08-09T07:48:39.268Z,28.88
2022-08-09T07:52:03.056Z,28.64
2022-08-09T07:54:05.430Z,29.64
2022-08-09T07:56:36.964Z,28.85
2022-08-09T07:59:15.025Z,28.77
2022-08-09T08:01:53.184Z,28.47
2022-08-09T08:04:20.233Z,28.66
2022-08-09T08:07:00.087Z,28.16
2022-08-09T08:09:42.997Z,28.96
2022-08-09T08:12:27.763Z,26.86
2022-08-09T08:14:55.274Z,27.91
2022-08-09T08:17:35.355Z,28.21
2022-08-09T08:20:13.189Z,28.21
2022-08-09T08:22:41.061Z,27.01
2022-08-09T08:25:13.579Z,26.70
2022-08-09T08:27:43.074Z,27.25
2022-08-09T08:30:11.757Z,26.66
2022-08-09T08:32:52.809Z,27.83
2022-08-09T08:35:22.512Z,28.78
2022-08-09T08:38:02.177Z,26.46
2022-08-09T08:40:32.469Z,28.64
2022-08-09T08:43:03.146Z,26.90
2022-08-09T08:45:51.692Z,24.83
2022-08-09T08:48:22.591Z,24.67
2022-08-09T08:50:57.351Z,23.66
2022-08-09T08:53:32.133Z,26.50
2022-08-09T08:56:06.995Z,26.79
2022-08-09T08:58:36.108Z,25.55
2022-08-09T09:01:08.877Z,25.03
2022-08-09T09:03:37.549Z,25.06
2022-08-09T09:06:07.194Z,26.25
2022-08-09T09:08:41.053Z,25.07
2022-08-09T09:11:17.578Z,26.69
2022-08-09T09:13:56.554Z,24.92
2022-08-09T09:16:32.239Z,25.36
2022-08-09T09:22:04.272Z,25.37
2022-08-09T09:24:35.244Z,23.79
2022-08-09T09:27:06.556Z,23.71
2022-08-09T09:30:11.525Z,22.92
2022-08-09T09:32:34.161Z,22.15
2022-08-09T09:35:07.778Z,23.14
2022-08-09T09:37:36.414Z,23.73
2022-08-09T09:40:08.062Z,24.68
2022-08-09T09:42:36.334Z,24.41
2022-08-09T09:45:08.100Z,24.41
2022-08-09T09:47:47.769Z,27.20
2022-08-09T09:50:17.362Z,26.59
2022-08-09T09:52:56.051Z,25.81
2022-08-09T09:55:32.069Z,25.44
2022-08-09T09:58:18.996Z,22.19
2022-08-09T10:00:59.167Z,22.34
2022-08-09T10:03:56.268Z,24.04
2022-08-09T10:06:26.313Z,24.55
2022-08-09T10:09:00.776Z,24.60
2022-08-09T10:12:01.412Z,22.40
2022-08-09T10:14:33.105Z,24.70
2022-08-09T10:17:40.304Z,24.04
2022-08-09T10:19:58.917Z,22.24
2022-08-09T10:22:34.673Z,20.19
2022-08-09T10:25:11.265Z,21.33
2022-08-09T10:27:56.141Z,22.69
2022-08-09T10:33:29.661Z,20.96
2022-08-09T10:36:02.369Z,22.62
2022-08-09T10:38:54.946Z,22.59
2022-08-09T10:41:18.600Z,19.58
2022-08-09T10:43:58.825Z,20.41
2022-08-09T10:47:20.487Z,21.17
2022-08-09T10:50:27.240Z,24.44
2022-08-09T10:53:10.614Z,22.11
2022-08-09T10:55:58.285Z,23.28
2022-08-09T10:58:35.155Z,20.03
2022-08-09T11:03:03.300Z,19.75
2022-08-09T11:04:30.922Z,21.18
2022-08-09T11:06:59.993Z,20.45
2022-08-09T11:09:46.127Z,18.26
2022-08-09T11:12:18.218Z,19.29
2022-08-09T11:14:57.361Z,20.26
2022-08-09T11:17:26.790Z,20.30
2022-08-09T11:20:10.043Z,19.73
2022-08-09T11:22:45.032Z,20.38
2022-08-09T11:25:19.356Z,20.51
2022-08-09T11:28:04.930Z,21.48
2022-08-09T11:30:47.828Z,19.71
2022-08-09T11:33:17.636Z,17.49
2022-08-09T11:35:49.671Z,18.44
2022-08-09T11:38:41.611Z,17.90
2022-08-09T11:41:14.196Z,20.20
2022-08-09T11:43:48.678Z,20.44
2022-08-09T11:46:26.683Z,18.67
2022-08-09T11:49:00.023Z,19.77
2022-08-09T11:53:03.586Z,18.90
2022-08-09T11:54:27.927Z,19.98
2022-08-09T11:57:47.699Z,18.81
2022-08-09T12:00:27.312Z,17.58
2022-08-09T12:02:57.405Z,16.88
2022-08-09T12:05:37.591Z,17.97
2022-08-09T12:08:12.177Z,17.83
2022-08-09T12:10:53.581Z,21.06
2022-08-09T12:14:07.194Z,18.81
2022-08-09T12:16:42.005Z,19.59
2022-08-09T12:19:12.916Z,18.61
2022-08-09T12:21:50.835Z,19.85
2022-08-09T12:24:25.877Z,17.18
2022-08-09T12:29:09.978Z,19.22
2022-08-09T12:30:01.809Z,17.43
2022-08-09T12:32:44.232Z,20.69
2022-08-09T12:35:16.947Z,17.77
2022-08-09T12:37:50.077Z,17.04
2022-08-09T12:40:18.889Z,17.36
2022-08-09T12:42:50.449Z,18.11
2022-08-09T12:45:33.451Z,17.41
2022-08-09T12:48:03.173Z,17.85
2022-08-09T12:50:30.401Z,17.06
2022-08-09T12:53:17.583Z,19.76
2022-08-09T12:56:16.166Z,21.91
2022-08-09T12:58:30.622Z,21.46
2022-08-09T13:00:58.827Z,20.27
2022-08-09T13:03:58.576Z,19.90
2022-08-09T13:06:39.109Z,19.55
2022-08-09T13:09:12.661Z,20.63
2022-08-09T13:11:45.867Z,21.44
2022-08-09T13:14:40.733Z,22.11
2022-08-09T13:17:21.954Z,21.82
2022-08-09T13:20:13.222Z,21.13
2022-08-09T13:23:05.564Z,20.85
2022-08-09T13:25:54.723Z,19.16
2022-08-09T13:28:34.065Z,19.82
2022-08-09T13:32:13.653Z,20.82
2022-08-09T13:33:57.039Z,20.12
2022-08-09T13:36:41.605Z,21.70
2022-08-09T13:41:17.737Z,23.63
2022-08-09T13:42:12.523Z,21.79
2022-08-09T13:44:42.196Z,19.36
2022-08-09T13:47:31.510Z,21.69
2022-08-09T13:50:12.439Z,21.84
2022-08-09T13:52:41.796Z,19.02
2022-08-09T13:55:13.466Z,19.19
2022-08-09T13:57:47.288Z,20.24
2022-08-09T14:00:23.131Z,19.48
2022-08-09T14:03:03.603Z,19.51
2022-08-09T14:06:00.089Z,20.43
2022-08-09T14:08:30.140Z,20.89
2022-08-09T14:10:57.240Z,21.64
2022-08-09T14:14:15.429Z,20.32
2022-08-09T14:16:14.972Z,19.18
2022-08-09T14:18:45.774Z,19.74
2022-08-09T14:21:18.081Z,20.76
2022-08-09T14:23:54.642Z,20.72
2022-08-09T14:26:25.218Z,21.57
2022-08-09T14:28:52.167Z,21.93
2022-08-09T14:31:18.815Z,24.62
2022-08-09T14:33:52.226Z,22.94
2022-08-09T14:36:21.492Z,22.23
2022-08-09T14:38:52.710Z,22.15
2022-08-09T14:41:39.814Z,21.78
2022-08-09T14:44:07.120Z,22.16
2022-08-09T14:47:00.904Z,23.30
2022-08-09T14:49:24.952Z,23.99
2022-08-09T14:51:51.916Z,22.21
2022-08-09T14:54:28.330Z,22.48
2022-08-09T14:56:58.677Z,21.65
2022-08-09T14:59:27.272Z,22.04
2022-08-09T15:01:55.603Z,21.83
2022-08-09T15:04:23.529Z,20.79
2022-08-09T15:06:51.628Z,20.84
2022-08-09T15:10:03.571Z,21.13
2022-08-09T15:12:08.000Z,20.96
2022-08-09T15:14:38.149Z,22.91
2022-08-09T15:17:09.255Z,22.35
2022-08-09T15:19:37.094Z,23.03
2022-08-09T15:22:25.879Z,23.51
2022-08-09T15:24:53.577Z,24.11
2022-08-09T15:27:21.169Z,24.13
2022-08-09T15:30:58.490Z,24.45
2022-08-09T15:32:35.722Z,25.51
2022-08-09T15:35:18.482Z,25.08
2022-08-09T15:37:57.197Z,25.32
2022-08-09T15:40:37.753Z,24.42
2022-08-09T15:43:13.439Z,25.21
2022-08-09T15:46:08.192Z,25.53
2022-08-09T15:48:31.751Z,26.43
2022-08-09T15:51:02.045Z,27.52
2022-08-09T15:54:04.778Z,27.26
2022-08-09T15:56:29.388Z,26.81
2022-08-09T15:58:58.289Z,26.54
2022-08-09T16:01:25.342Z,26.23
2022-08-09T16:03:52.337Z,27.36
2022-08-09T16:06:32.781Z,27.57
2022-08-09T16:09:05.034Z,27.11
2022-08-09T16:11:33.226Z,27.41
2022-08-09T16:14:03.529Z,26.75
2022-08-09T16:16:34.589Z,26.55
2022-08-09T16:19:05.343Z,27.18
2022-08-09T16:21:35.059Z,26.30
2022-08-09T16:24:04.551Z,27.02
2022-08-09T16:26:35.063Z,27.95
2022-08-09T16:29:10.517Z,27.52
2022-08-09T16:32:18.082Z,27.38
2022-08-09T16:34:27.216Z,27.96
2022-08-09T16:36:56.531Z,27.96
2022-08-09T16:39:25.983Z,28.10
2022-08-09T16:42:02.842Z,27.97
2022-08-09T16:44:31.595Z,27.97
2022-08-09T16:47:04.186Z,27.81
2022-08-09T16:50:29.921Z,28.98
2022-08-09T16:52:32.500Z,28.39
2022-08-09T16:54:59.351Z,27.72
2022-08-09T16:57:26.045Z,28.87
2022-08-09T17:00:14.071Z,28.17
2022-08-09T17:02:42.734Z,27.80
2022-08-09T17:05:14.258Z,27.81
2022-08-09T17:08:42.777Z,28.27
2022-08-09T17:10:33.902Z,28.26
2022-08-09T17:13:01.521Z,28.65
2022-08-09T17:15:58.624Z,29.14
2022-08-09T17:18:15.434Z,29.11
2022-08-09T17:20:49.189Z,29.33
2022-08-09T17:23:20.202Z,28.95
2022-08-09T17:25:52.819Z,29.94
2022-08-09T17:28:20.027Z,30.21
2022-08-09T17:30:47.859Z,30.16
2022-08-09T17:33:22.763Z,29.73
2022-08-09T17:35:50.015Z,30.23
2022-08-09T17:38:32.921Z,30.96
2022-08-09T17:41:03.574Z,31.27
2022-08-09T17:43:34.534Z,31.35
2022-08-09T17:46:06.931Z,31.06
2022-08-09T17:48:38.868Z,31.32
2022-08-09T17:51:19.103Z,31.80
2022-08-09T17:53:53.292Z,31.96
2022-08-09T17:56:35.488Z,31.99
2022-08-09T17:59:09.178Z,31.89
2022-08-09T18:01:57.898Z,32.08
2022-08-09T18:04:26.586Z,31.89
2022-08-09T18:06:54.909Z,32.31
2022-08-09T18:09:25.230Z,31.84
2022-08-09T18:12:18.229Z,31.73
2022-08-09T18:14:53.961Z,32.08
2022-08-09T18:17:27.263Z,32.37
2022-08-09T18:20:54.860Z,32.50
2022-08-09T18:23:05.477Z,32.65
2022-08-09T18:25:50.526Z,33.12
2022-08-09T18:30:38.040Z,32.93
2022-08-09T18:31:08.065Z,33.15
2022-08-09T18:33:34.764Z,33.02
2022-08-09T18:36:02.217Z,33.39
2022-08-09T18:38:28.979Z,33.28
2022-08-09T18:40:55.962Z,33.53
2022-08-09T18:43:24.569Z,33.11
2022-08-09T18:46:47.091Z,33.63
2022-08-09T18:48:38.199Z,33.76
2022-08-09T18:51:08.895Z,34.08
2022-08-09T18:53:56.289Z,34.25
2022-08-09T18:56:27.018Z,34.12
2022-08-09T18:58:55.960Z,34.26
2022-08-09T19:01:23.432Z,34.60
2022-08-09T19:04:01.584Z,34.49
2022-08-09T19:06:38.380Z,36.12
2022-08-09T19:09:07.155Z,36.57
2022-08-09T19:11:37.389Z,36.86
2022-08-09T19:14:05.172Z,37.73
2022-08-09T19:16:35.972Z,37.10
2022-08-09T19:19:21.260Z,36.84
2022-08-09T19:22:04.397Z,37.79
2022-08-09T19:24:39.339Z,37.02
2022-08-09T19:27:20.721Z,37.59
2022-08-09T19:30:22.513Z,37.68
2022-08-09T19:32:36.101Z,37.83
2022-08-09T19:35:04.953Z,38.06
2022-08-09T19:37:40.850Z,38.73
2022-08-09T19:40:19.614Z,39.02
2022-08-09T19:42:47.403Z,39.14
2022-08-09T19:45:16.459Z,39.24
2022-08-09T19:47:44.372Z,40.68
2022-08-09T19:50:49.420Z,39.72
2022-08-09T19:52:59.519Z,39.42
2022-08-09T19:55:52.704Z,39.76
2022-08-09T19:58:17.012Z,40.01
2022-08-09T20:00:45.481Z,40.91
2022-08-09T20:04:26.499Z,39.94
2022-08-09T20:06:00.139Z,39.64
2022-08-09T20:08:34.867Z,41.69
2022-08-09T20:11:04.720Z,41.49
2022-08-09T20:13:36.861Z,42.53
2022-08-09T20:16:35.697Z,42.87
2022-08-09T20:19:42.438Z,42.13
2022-08-09T20:21:55.065Z,42.72
2022-08-09T20:24:31.775Z,43.43
2022-08-09T20:27:02.625Z,44.17
2022-08-09T20:29:37.465Z,44.21
2022-08-09T20:32:29.907Z,44.01
2022-08-09T20:34:56.603Z,44.30
2022-08-09T20:37:23.747Z,45.71
2022-08-09T20:40:16.347Z,46.79
2022-08-09T20:42:37.968Z,45.87
2022-08-09T20:45:58.716Z,45.97
2022-08-09T20:47:52.867Z,46.80
2022-08-09T20:50:47.602Z,46.78
2022-08-09T20:53:34.924Z,47.24
2022-08-09T20:56:00.647Z,47.48
2022-08-09T20:58:32.859Z,47.10
2022-08-09T21:01:33.698Z,47.28
2022-08-09T21:04:08.347Z,47.46
2022-08-09T21:06:35.827Z,47.70
2022-08-09T21:09:02.794Z,47.62
2022-08-09T21:14:17.351Z,47.78
2022-08-09T21:16:45.858Z,47.83
2022-08-09T21:20:18.436Z,47.49
2022-08-09T21:22:00.017Z,49.77
2022-08-09T21:24:28.989Z,48.98
2022-08-09T21:26:59.449Z,49.11
2022-08-09T21:29:26.113Z,49.38
2022-08-09T21:31:53.951Z,50.07
2022-08-09T21:34:29.370Z,50.18
2022-08-09T21:36:56.760Z,50.18
2022-08-09T21:39:27.956Z,51.06
2022-08-09T21:42:06.102Z,50.55
2022-08-09T21:44:38.001Z,50.50
2022-08-09T21:47:07.835Z,49.77
2022-08-09T21:49:39.638Z,49.58
2022-08-09T21:52:16.408Z,50.16
2022-08-09T21:54:50.551Z,50.46
2022-08-09T21:57:37.154Z,50.28
2022-08-09T22:00:25.306Z,50.95
2022-08-09T22:02:58.270Z,52.17
2022-08-09T22:05:37.285Z,51.68
2022-08-09T22:08:13.161Z,52.06
2022-08-09T22:11:49.645Z,53.80
2022-08-09T22:13:34.645Z,52.56
2022-08-09T22:16:07.140Z,52.14
2022-08-09T22:18:34.036Z,51.96
2022-08-09T22:21:01.304Z,51.66
2022-08-09T22:23:35.407Z,51.67
2022-08-09T22:26:06.308Z,52.00
2022-08-09T22:28:43.585Z,51.53
2022-08-09T22:31:20.910Z,52.04
2022-08-09T22:33:49.134Z,52.41
2022-08-09T22:36:21.798Z,52.18
2022-08-09T22:38:49.023Z,52.14
2022-08-09T22:41:15.821Z,52.21
2022-08-09T22:44:01.622Z,51.38
2022-08-09T22:48:12.673Z,50.53
2022-08-09T22:49:16.275Z,50.31
2022-08-09T22:51:49.167Z,49.58
2022-08-09T22:54:21.287Z,49.94
2022-08-09T22:56:54.723Z,49.56
2022-08-09T22:59:57.765Z,48.30
2022-08-09T23:02:11.150Z,48.30
2022-08-09T23:04:43.753Z,48.42
2022-08-09T23:08:21.709Z,49.09
2022-08-09T23:10:26.899Z,48.94
2022-08-09T23:12:53.564Z,48.63
2022-08-09T23:15:20.378Z,48.63
2022-08-09T23:17:47.090Z,48.18
2022-08-09T23:20:13.798Z,48.25
2022-08-09T23:22:40.538Z,48.61
2022-08-09T23:25:08.047Z,48.46
2022-08-09T23:27:34.935Z,47.86
2022-08-09T23:30:01.819Z,48.20
2022-08-09T23:32:28.715Z,48.01
2022-08-09T23:34:55.330Z,48.08
2022-08-09T23:37:22.804Z,48.26
2022-08-09T23:39:52.487Z,48.52
2022-08-09T23:42:19.098Z,49.44
2022-08-09T23:44:45.876Z,50.00
2022-08-09T23:47:12.511Z,50.22
2022-08-09T23:49:39.164Z,49.73
2022-08-09T23:52:05.845Z,50.04
2022-08-09T23:54:32.679Z,49.80
2022-08-09T23:56:59.563Z,50.21
2022-08-09T23:59:46.356Z,50.36
